Time;durP1;ratioP1;P1;durP2;ratioP2;P2;SDS_P1;SDS_P2;PMS_P1;PMS_P2;Temp;Humidity;BMP_temperature;BMP_pressure;BME280_temperature;BME280_humidity;BME280_pressure;Samples;Min_cycle;Max_cycle;Signal;HPM_P1;HPM_P2
2023/08/09 00:00:06;;;;;;;1.40;0.60;;;;;;;12.00;89.26;100124.81;2066333;28;20105;-71
2023/08/09 00:01:08;;;;;;;4.03;0.60;;;;;;;11.97;89.74;100130.81;2071342;28;20031;-72
2023/08/09 00:02:10;;;;;;;2.00;0.52;;;;;;;11.98;89.54;100125.13;2069291;28;20035;-71
2023/08/09 00:03:14;;;;;;;2.58;0.50;;;;;;;11.99;89.71;100128.63;2077930;28;20038;-71
2023/08/09 00:04:18;;;;;;;1.15;0.50;;;;;;;11.99;89.95;100132.09;2078727;28;20097;-71
2023/08/09 00:05:20;;;;;;;2.13;0.50;;;;;;;11.99;89.75;100126.72;2077174;28;20018;-71
2023/08/09 00:06:22;;;;;;;1.35;0.63;;;;;;;12.00;89.77;100130.22;2079204;28;20039;-71
2023/08/09 00:07:23;;;;;;;1.95;0.60;;;;;;;12.00;89.96;100131.00;2074125;28;20039;-71
2023/08/09 00:08:26;;;;;;;2.65;0.60;;;;;;;12.02;90.14;100133.41;2070757;28;20065;-71
2023/08/09 00:09:27;;;;;;;2.03;0.90;;;;;;;11.99;89.81;100131.31;2060979;28;20814;-71
2023/08/09 00:10:33;;;;;;;1.73;0.70;;;;;;;11.98;90.04;100127.81;2062833;28;20078;-71
2023/08/09 00:11:35;;;;;;;0.70;0.45;;;;;;;11.94;89.97;100126.00;2070145;28;20087;-71
2023/08/09 00:12:37;;;;;;;0.82;0.50;;;;;;;11.93;89.86;100127.13;2068375;28;20034;-71
2023/08/09 00:13:38;;;;;;;2.28;0.43;;;;;;;11.92;90.31;100122.84;2062687;28;20847;-71
2023/08/09 00:14:40;;;;;;;2.40;0.95;;;;;;;11.92;90.20;100130.91;2060932;28;20049;-71
2023/08/09 00:15:42;;;;;;;2.47;0.60;;;;;;;11.91;90.06;100118.53;2062973;28;20043;-71
2023/08/09 00:16:44;;;;;;;1.13;0.60;;;;;;;11.91;90.32;100124.69;2068507;28;20031;-71
2023/08/09 00:17:45;;;;;;;1.00;0.55;;;;;;;11.92;90.55;100133.63;2068537;28;20074;-71
2023/08/09 00:18:47;;;;;;;1.25;0.60;;;;;;;11.89;90.29;100134.22;2062527;28;20034;-70
2023/08/09 00:19:54;;;;;;;1.05;0.60;;;;;;;11.90;90.42;100136.59;2061425;28;20766;-71
2023/08/09 00:21:00;;;;;;;1.27;0.60;;;;;;;11.94;90.17;100136.78;2063123;28;20101;-71
2023/08/09 00:22:04;;;;;;;3.33;0.60;;;;;;;11.95;90.24;100141.09;2055115;28;20024;-71
2023/08/09 00:23:05;;;;;;;2.05;0.65;;;;;;;11.92;90.21;100139.78;2043166;28;20124;-71
2023/08/09 00:24:10;;;;;;;1.25;0.50;;;;;;;11.93;90.63;100140.59;2054085;28;20051;-71
2023/08/09 00:25:11;;;;;;;0.60;0.50;;;;;;;11.97;90.50;100141.59;2046025;28;20072;-71
2023/08/09 00:26:13;;;;;;;0.98;0.40;;;;;;;12.00;90.40;100143.69;2045657;28;20042;-71
2023/08/09 00:27:15;;;;;;;1.48;0.55;;;;;;;11.99;90.62;100139.41;2061160;28;20950;-71
2023/08/09 00:28:16;;;;;;;2.58;0.60;;;;;;;12.02;90.10;100144.19;2052802;28;20030;-71
2023/08/09 00:29:18;;;;;;;1.50;0.50;;;;;;;12.01;90.45;100147.97;2054115;28;20038;-71
2023/08/09 00:30:20;;;;;;;0.95;0.60;;;;;;;11.99;90.21;100147.47;2050188;28;20031;-71
2023/08/09 00:31:21;;;;;;;1.58;0.68;;;;;;;12.00;90.31;100151.75;2049912;28;20024;-70
2023/08/09 00:32:23;;;;;;;0.70;0.52;;;;;;;12.02;90.40;100155.75;2057988;28;20105;-70
2023/08/09 00:33:25;;;;;;;1.27;0.50;;;;;;;11.98;90.31;100152.06;2057513;28;20036;-70
2023/08/09 00:34:28;;;;;;;2.85;0.60;;;;;;;12.00;90.30;100155.25;2057974;28;20023;-70
2023/08/09 00:35:31;;;;;;;1.90;0.50;;;;;;;12.00;90.19;100157.16;2049891;28;20042;-71
2023/08/09 00:36:34;;;;;;;2.78;0.82;;;;;;;12.00;90.36;100157.16;2050516;28;20202;-70
2023/08/09 00:37:39;;;;;;;1.08;0.65;;;;;;;11.98;90.04;100157.47;2057877;28;20039;-70
2023/08/09 00:38:41;;;;;;;2.72;0.80;;;;;;;12.01;90.38;100159.56;2066124;28;20058;-70
2023/08/09 00:39:43;;;;;;;1.33;0.70;;;;;;;12.01;90.29;100159.56;2065529;28;20774;-71
2023/08/09 00:40:46;;;;;;;1.90;0.50;;;;;;;11.99;90.00;100160.94;2057863;28;20082;-71
2023/08/09 00:41:47;;;;;;;2.33;0.82;;;;;;;11.90;89.80;100158.13;2049822;28;20032;-70
2023/08/09 00:42:50;;;;;;;1.52;0.65;;;;;;;11.90;90.14;100165.44;2050265;28;20056;-71
2023/08/09 00:43:54;;;;;;;3.13;1.23;;;;;;;11.87;90.18;100166.81;2057227;28;20039;-70
2023/08/09 00:44:55;;;;;;;1.27;0.63;;;;;;;11.85;90.38;100160.91;2050530;28;20036;-71
2023/08/09 00:46:00;;;;;;;1.25;0.60;;;;;;;11.86;90.73;100167.91;2049835;28;20098;-71
2023/08/09 00:47:01;;;;;;;0.90;0.52;;;;;;;11.88;90.86;100170.31;2050892;28;20074;-71
2023/08/09 00:48:06;;;;;;;2.08;0.52;;;;;;;11.88;90.52;100165.72;2049808;28;20039;-71
2023/08/09 00:49:10;;;;;;;1.10;0.40;;;;;;;11.89;90.53;100167.31;2051213;28;20772;-71
2023/08/09 00:50:12;;;;;;;1.10;0.65;;;;;;;11.91;90.31;100173.19;2050094;28;20031;-71
2023/08/09 00:51:13;;;;;;;2.08;0.57;;;;;;;11.92;90.41;100168.63;2049581;28;20061;-71
2023/08/09 00:52:16;;;;;;;1.48;0.40;;;;;;;11.92;90.45;100176.72;2057833;28;20106;-71
2023/08/09 00:53:21;;;;;;;2.22;0.50;;;;;;;11.91;90.62;100169.72;2057675;28;20787;-70
2023/08/09 00:54:25;;;;;;;2.15;0.70;;;;;;;11.89;90.60;100172.72;2050759;28;20060;-71
2023/08/09 00:55:27;;;;;;;2.67;0.50;;;;;;;11.89;90.59;100163.84;2057884;28;20028;-70
2023/08/09 00:56:30;;;;;;;0.80;0.57;;;;;;;11.88;90.24;100165.72;2057549;28;20106;-70
2023/08/09 00:57:38;;;;;;;1.38;0.50;;;;;;;11.89;90.58;100167.31;2051512;28;20146;-71
2023/08/09 00:58:40;;;;;;;1.50;0.60;;;;;;;11.88;90.82;100164.91;2050757;28;20024;-70
2023/08/09 00:59:42;;;;;;;1.20;0.55;;;;;;;11.86;90.50;100172.50;2049428;28;20838;-70
2023/08/09 01:00:46;;;;;;;1.40;0.65;;;;;;;11.89;90.84;100163.84;2050059;28;20023;-70
2023/08/09 01:01:48;;;;;;;1.10;0.63;;;;;;;11.89;91.26;100164.63;2049783;28;20031;-70
2023/08/09 01:02:50;;;;;;;1.20;0.63;;;;;;;11.91;91.21;100154.34;2050139;28;20031;-70
2023/08/09 01:03:53;;;;;;;2.90;0.70;;;;;;;11.95;91.22;100158.06;2065486;28;20047;-71
2023/08/09 01:04:54;;;;;;;1.10;0.80;;;;;;;11.97;91.05;100165.81;2057472;28;20027;-70
2023/08/09 01:06:24;;;;;;;2.58;0.45;;;;;;;11.95;90.52;100155.38;2057811;28;20130;-71
2023/08/09 01:07:35;;;;;;;2.25;0.63;;;;;;;11.96;90.77;100156.16;2061257;28;20140;-71
2023/08/09 01:09:15;;;;;;;5.68;0.70;;;;;;;11.97;90.48;100155.06;2060242;28;20054;-71
2023/08/09 01:10:22;;;;;;;3.13;0.50;;;;;;;11.97;90.95;100163.94;2069609;28;20212;-71
2023/08/09 01:11:38;;;;;;;2.67;0.80;;;;;;;11.98;90.99;100164.72;2073790;28;20057;-71
2023/08/09 01:12:42;;;;;;;1.83;0.90;;;;;;;11.99;90.38;100158.25;2073680;28;20847;-71
2023/08/09 01:13:45;;;;;;;0.90;0.55;;;;;;;11.99;90.65;100156.34;2057602;28;20069;-70
2023/08/09 01:14:54;;;;;;;3.53;0.82;;;;;;;12.02;90.89;100163.06;2049862;28;20268;-71
2023/08/09 01:15:58;;;;;;;0.80;0.60;;;;;;;12.03;90.91;100160.03;2050695;28;20047;-71
2023/08/09 01:17:01;;;;;;;2.78;0.60;;;;;;;12.02;90.71;100154.97;2050391;28;20036;-70
2023/08/09 01:18:05;;;;;;;3.25;0.65;;;;;;;11.99;90.90;100150.97;2049782;28;20878;-70
2023/08/09 01:19:11;;;;;;;0.60;0.50;;;;;;;12.00;90.83;100154.47;2058002;28;20039;-70
2023/08/09 01:20:14;;;;;;;2.25;0.70;;;;;;;12.01;90.46;100153.34;2049610;28;20043;-69
2023/08/09 01:21:20;;;;;;;2.60;0.75;;;;;;;12.01;90.66;100158.75;2042209;28;20036;-70
2023/08/09 01:22:25;;;;;;;1.60;0.70;;;;;;;12.03;90.76;100154.66;2065763;28;20042;-71
2023/08/09 01:23:36;;;;;;;1.35;0.70;;;;;;;12.04;90.76;100152.75;2056670;28;20130;-71
2023/08/09 01:24:38;;;;;;;2.75;0.80;;;;;;;12.04;90.61;100152.75;2052420;28;20082;-71
2023/08/09 01:25:40;;;;;;;2.25;0.70;;;;;;;12.00;90.50;100146.38;2049343;28;20145;-71
2023/08/09 01:26:41;;;;;;;1.55;0.68;;;;;;;11.99;90.87;100139.41;2041933;28;20059;-71
2023/08/09 01:27:43;;;;;;;2.33;0.80;;;;;;;11.98;90.95;100151.25;2050657;28;20075;-71
2023/08/09 01:28:44;;;;;;;2.35;0.65;;;;;;;11.95;91.27;100151.88;2057677;28;20163;-71
2023/08/09 01:29:47;;;;;;;4.20;0.95;;;;;;;11.95;91.15;100149.19;2057500;28;20086;-70
2023/08/09 01:30:51;;;;;;;5.15;0.70;;;;;;;11.94;90.87;100142.19;2049592;28;20835;-70
2023/08/09 01:31:56;;;;;;;2.13;1.25;;;;;;;11.92;90.90;100147.09;2049868;28;20028;-69
2023/08/09 01:32:58;;;;;;;1.45;0.63;;;;;;;11.91;91.08;100142.78;2058343;28;20035;-70
2023/08/09 01:34:00;;;;;;;1.42;0.80;;;;;;;11.88;91.53;100151.44;2057103;28;20027;-70
2023/08/09 01:35:03;;;;;;;1.90;0.70;;;;;;;11.87;91.40;100147.97;2057393;28;20031;-70
2023/08/09 01:36:14;;;;;;;0.90;0.73;;;;;;;11.88;91.82;100149.53;2057938;28;20886;-71
2023/08/09 01:37:24;;;;;;;1.55;0.80;;;;;;;11.88;91.87;100143.38;2058531;28;20027;-71
2023/08/09 01:38:35;;;;;;;2.28;0.77;;;;;;;11.87;91.84;100141.78;2050562;28;20023;-71
2023/08/09 01:39:38;;;;;;;1.10;0.70;;;;;;;11.86;91.85;100145.56;2058747;28;20138;-71
2023/08/09 01:40:41;;;;;;;2.80;1.20;;;;;;;11.81;91.81;100141.81;2057521;28;20027;-71
2023/08/09 01:41:43;;;;;;;2.67;0.90;;;;;;;11.80;91.97;100142.94;2056835;28;20964;-70
2023/08/09 01:42:47;;;;;;;4.53;1.10;;;;;;;11.79;92.39;100148.59;2056888;28;20035;-71
2023/08/09 01:43:50;;;;;;;4.43;1.77;;;;;;;11.77;92.13;100138.13;2058014;28;20043;-71
2023/08/09 01:44:58;;;;;;;2.70;0.85;;;;;;;11.77;92.16;100143.53;2072418;28;20884;-71
2023/08/09 01:46:01;;;;;;;1.15;0.90;;;;;;;11.77;92.52;100148.91;2065133;28;20038;-71
2023/08/09 01:47:03;;;;;;;4.05;0.95;;;;;;;11.78;92.45;100142.41;2049080;28;20043;-71
2023/08/09 01:48:05;;;;;;;2.30;0.93;;;;;;;11.79;92.59;100141.34;2041416;28;20119;-70
2023/08/09 01:49:12;;;;;;;2.60;1.00;;;;;;;11.79;92.41;100140.50;2049862;28;20974;-71
2023/08/09 01:50:37;;;;;;;1.83;0.80;;;;;;;11.76;92.50;100150.00;2058098;28;20039;-71
2023/08/09 01:51:41;;;;;;;3.30;0.80;;;;;;;11.72;92.60;100142.81;2060343;28;20815;-70
2023/08/09 01:52:43;;;;;;;2.75;1.02;;;;;;;11.71;93.11;100139.31;2057063;28;20172;-71
2023/08/09 01:53:45;;;;;;;1.08;0.90;;;;;;;11.72;93.35;100146.28;2057564;28;20901;-70
2023/08/09 01:54:46;;;;;;;1.90;0.90;;;;;;;11.74;92.92;100144.09;2057123;28;20023;-71
2023/08/09 01:55:48;;;;;;;2.38;0.80;;;;;;;11.74;93.01;100144.09;2057278;28;20050;-70
2023/08/09 01:56:50;;;;;;;2.75;1.10;;;;;;;11.76;93.08;100143.84;2049476;28;20150;-70
2023/08/09 01:57:52;;;;;;;2.28;0.90;;;;;;;11.76;92.83;100151.91;2049358;28;20038;-71
2023/08/09 01:58:56;;;;;;;2.58;0.98;;;;;;;11.76;92.98;100152.72;2049783;28;20123;-71
2023/08/09 01:59:59;;;;;;;1.52;0.90;;;;;;;11.77;92.97;100148.91;2057265;28;20040;-70
2023/08/09 02:01:01;;;;;;;1.92;1.10;;;;;;;11.78;93.04;100145.09;2057207;28;20036;-70
2023/08/09 02:02:04;;;;;;;1.27;1.08;;;;;;;11.77;92.59;100146.22;2065235;28;20035;-71
2023/08/09 02:03:06;;;;;;;2.65;0.90;;;;;;;11.77;92.74;100146.22;2049021;28;20032;-71
2023/08/09 02:04:12;;;;;;;2.90;0.93;;;;;;;11.75;92.96;100156.47;2049518;28;20032;-70
2023/08/09 02:05:18;;;;;;;2.10;0.90;;;;;;;11.74;92.92;100146.81;2049730;28;20031;-71
2023/08/09 02:06:19;;;;;;;1.25;1.10;;;;;;;11.74;92.62;100149.50;2050152;28;20103;-71
2023/08/09 02:07:22;;;;;;;3.17;1.00;;;;;;;11.73;92.88;100147.91;2057255;28;20898;-71
2023/08/09 02:08:24;;;;;;;2.50;0.90;;;;;;;11.73;92.52;100152.50;2056879;28;20035;-71
2023/08/09 02:09:30;;;;;;;4.35;1.10;;;;;;;11.72;92.70;100146.28;2049505;28;20044;-71
2023/08/09 02:10:35;;;;;;;3.03;1.08;;;;;;;11.71;92.99;100143.91;2065129;28;20031;-71
2023/08/09 02:11:37;;;;;;;2.75;1.23;;;;;;;11.72;92.74;100148.97;2072892;28;20019;-71
2023/08/09 02:12:47;;;;;;;2.78;1.20;;;;;;;11.72;92.82;100148.97;2065499;28;21134;-72
2023/08/09 02:13:49;;;;;;;2.80;1.15;;;;;;;11.71;92.98;100136.63;2066555;28;20031;-71
2023/08/09 02:14:53;;;;;;;2.00;1.00;;;;;;;11.72;93.11;100146.28;2065606;28;20047;-71
2023/08/09 02:15:57;;;;;;;2.08;1.10;;;;;;;11.72;92.69;100146.28;2057619;28;20031;-72
2023/08/09 02:16:59;;;;;;;1.73;1.00;;;;;;;11.72;92.88;100151.69;2049880;28;20038;-71
2023/08/09 02:18:00;;;;;;;1.10;0.90;;;;;;;11.74;92.92;100149.50;2049327;28;20028;-71
2023/08/09 02:19:03;;;;;;;2.10;1.10;;;;;;;11.73;92.82;100152.50;2057733;28;20115;-71
2023/08/09 02:20:09;;;;;;;6.88;1.00;;;;;;;11.70;92.71;100161.16;2065435;28;20102;-71
2023/08/09 02:21:11;;;;;;;2.83;1.23;;;;;;;11.67;92.64;100162.56;2049596;28;20119;-71
2023/08/09 02:22:15;;;;;;;1.80;1.10;;;;;;;11.66;92.78;100162.84;2057213;28;20073;-71
2023/08/09 02:23:18;;;;;;;2.00;1.00;;;;;;;11.64;93.14;100175.81;2057254;28;20032;-71
2023/08/09 02:24:21;;;;;;;1.63;1.40;;;;;;;11.64;93.19;100156.97;2057298;28;20035;-71
2023/08/09 02:25:23;;;;;;;2.25;1.08;;;;;;;11.58;93.21;100167.00;2057204;28;20771;-71
2023/08/09 02:26:27;;;;;;;2.42;1.30;;;;;;;11.59;93.56;100164.00;2064954;28;20055;-71
2023/08/09 02:27:29;;;;;;;1.58;1.02;;;;;;;11.58;93.35;100165.13;2064868;28;20030;-71
2023/08/09 02:28:30;;;;;;;2.55;1.25;;;;;;;11.58;93.46;100161.63;2064299;28;20067;-71
2023/08/09 02:29:32;;;;;;;2.58;1.10;;;;;;;11.58;94.01;100161.63;2072614;28;20030;-71
2023/08/09 02:30:34;;;;;;;3.13;1.35;;;;;;;11.59;93.75;100165.91;2048595;28;21253;-71
2023/08/09 02:31:36;;;;;;;1.95;1.05;;;;;;;11.59;94.07;100158.63;2041838;28;20036;-72
2023/08/09 02:32:39;;;;;;;2.58;1.27;;;;;;;11.58;94.36;100162.41;2049219;28;20032;-71
2023/08/09 02:33:41;;;;;;;4.13;1.30;;;;;;;11.56;94.02;100159.22;2049669;28;20047;-71
2023/08/09 02:34:43;;;;;;;1.27;1.08;;;;;;;11.56;94.27;100153.81;2057306;28;20035;-72
2023/08/09 02:36:02;;;;;;;2.30;1.17;;;;;;;11.57;94.38;100168.91;2064476;28;20085;-71
2023/08/09 02:37:04;;;;;;;4.38;1.40;;;;;;;11.59;94.37;100163.22;2051139;28;20095;-70
2023/08/09 02:38:06;;;;;;;3.10;1.20;;;;;;;11.59;94.37;100155.13;2041450;28;20088;-70
2023/08/09 02:39:08;;;;;;;6.55;1.48;;;;;;;11.60;94.43;100148.66;2049114;28;20035;-70
2023/08/09 02:40:12;;;;;;;4.68;1.30;;;;;;;11.59;94.33;100165.91;2057082;28;20150;-70
2023/08/09 02:41:14;;;;;;;2.15;1.40;;;;;;;11.58;94.37;100159.72;2066066;28;20087;-70
2023/08/09 02:42:16;;;;;;;1.55;1.15;;;;;;;11.56;93.98;100161.13;2056794;28;20146;-71
2023/08/09 02:43:23;;;;;;;4.88;1.10;;;;;;;11.55;94.11;100163.00;2057460;28;20023;-71
2023/08/09 02:44:25;;;;;;;3.22;1.40;;;;;;;11.56;94.21;100164.59;2064693;28;20050;-70
2023/08/09 02:45:27;;;;;;;1.42;1.20;;;;;;;11.54;94.47;100166.81;2057205;28;20027;-70
2023/08/09 02:46:29;;;;;;;4.25;1.38;;;;;;;11.53;94.76;100165.19;2065247;28;20051;-70
2023/08/09 02:47:31;;;;;;;1.83;1.30;;;;;;;11.56;94.52;100167.28;2056987;28;20027;-70
2023/08/09 02:48:35;;;;;;;4.50;1.40;;;;;;;11.56;94.95;100163.81;2049661;28;20045;-70
2023/08/09 02:49:36;;;;;;;6.20;1.30;;;;;;;11.56;94.50;100169.19;2057550;28;20031;-70
2023/08/09 02:50:38;;;;;;;4.22;1.27;;;;;;;11.56;94.74;100169.19;2064971;28;20134;-70
2023/08/09 02:51:40;;;;;;;5.70;1.30;;;;;;;11.49;94.63;100168.78;2049037;28;20783;-70
2023/08/09 02:52:42;;;;;;;2.72;1.48;;;;;;;11.53;94.95;100175.97;2049513;28;20895;-70
2023/08/09 02:54:02;;;;;;;1.52;1.20;;;;;;;11.53;94.47;100172.47;2057663;28;20039;-70
2023/08/09 02:55:06;;;;;;;3.63;2.00;;;;;;;11.52;94.71;100168.97;2071473;28;20043;-70
2023/08/09 02:56:08;;;;;;;4.53;1.30;;;;;;;11.53;94.63;100170.56;2066325;28;20026;-70
2023/08/09 02:57:09;;;;;;;2.75;1.27;;;;;;;11.53;94.54;100169.78;2058126;28;20073;-70
2023/08/09 02:58:10;;;;;;;2.95;1.40;;;;;;;11.53;94.47;100175.16;2058156;28;20031;-70
2023/08/09 02:59:12;;;;;;;2.13;1.35;;;;;;;11.56;94.89;100174.56;2074682;28;20184;-70
2023/08/09 03:00:16;;;;;;;2.05;1.40;;;;;;;11.55;94.53;100179.16;2074331;28;20030;-70
2023/08/09 03:01:17;;;;;;;2.67;1.55;;;;;;;11.56;94.97;100180.75;2058277;28;20145;-70
2023/08/09 03:02:18;;;;;;;3.95;1.50;;;;;;;11.57;94.48;100182.38;2050470;28;20131;-69
2023/08/09 03:03:23;;;;;;;3.28;1.40;;;;;;;11.57;94.34;100184.28;2051031;28;20024;-69
2023/08/09 03:04:24;;;;;;;3.10;1.30;;;;;;;11.58;94.19;100185.88;2058041;28;20046;-69
2023/08/09 03:05:27;;;;;;;2.40;1.40;;;;;;;11.55;94.42;100183.75;2050501;28;20871;-69
2023/08/09 03:06:29;;;;;;;5.50;1.50;;;;;;;11.56;94.52;100180.75;2050654;28;20951;-69
2023/08/09 03:07:31;;;;;;;1.85;1.30;;;;;;;11.53;94.59;100186.72;2066484;28;21020;-69
2023/08/09 03:08:33;;;;;;;3.53;1.35;;;;;;;11.53;94.34;100185.94;2074340;28;20082;-69
2023/08/09 03:09:38;;;;;;;3.45;1.40;;;;;;;11.53;94.16;100192.09;2058299;28;20039;-69
2023/08/09 03:10:39;;;;;;;5.22;1.40;;;;;;;11.50;94.52;100194.59;2051130;28;20028;-69
2023/08/09 03:11:42;;;;;;;2.20;1.42;;;;;;;11.50;94.63;100192.69;2057817;28;20027;-69
2023/08/09 03:12:45;;;;;;;2.75;1.63;;;;;;;11.50;94.52;100183.81;2058628;28;20051;-69
2023/08/09 03:13:47;;;;;;;3.97;1.75;;;;;;;11.50;94.47;100195.38;2057955;28;20909;-69
2023/08/09 03:14:50;;;;;;;3.88;1.45;;;;;;;11.49;94.48;100190.31;2059240;28;20062;-69
2023/08/09 03:15:52;;;;;;;1.73;1.25;;;;;;;11.49;94.67;100190.31;2074343;28;20105;-70
2023/08/09 03:16:56;;;;;;;3.20;1.50;;;;;;;11.50;94.56;100200.78;2058522;28;20035;-70
2023/08/09 03:17:57;;;;;;;2.90;1.42;;;;;;;11.50;94.55;100202.66;2058441;28;21105;-70
2023/08/09 03:18:59;;;;;;;2.75;1.50;;;;;;;11.47;94.81;100204.06;2058233;28;21288;-70
2023/08/09 03:20:01;;;;;;;3.63;1.60;;;;;;;11.45;95.05;100200.88;2065902;28;20073;-69
2023/08/09 03:21:03;;;;;;;4.07;1.30;;;;;;;11.46;94.83;100202.47;2050726;28;20043;-69
2023/08/09 03:22:05;;;;;;;5.10;1.60;;;;;;;11.44;94.88;100204.63;2042459;28;20147;-69
2023/08/09 03:23:09;;;;;;;3.47;1.50;;;;;;;11.44;95.21;100211.91;2043998;28;20104;-70
2023/08/09 03:24:13;;;;;;;4.53;1.70;;;;;;;11.45;95.23;100205.47;2050884;28;20878;-70
2023/08/09 03:25:19;;;;;;;4.47;1.75;;;;;;;11.46;95.17;100209.75;2051624;28;20046;-70
2023/08/09 03:26:26;;;;;;;4.45;1.77;;;;;;;11.48;95.05;100208.38;2043153;28;20032;-69
2023/08/09 03:27:29;;;;;;;3.83;1.58;;;;;;;11.50;95.36;100208.84;2043912;28;20044;-69
2023/08/09 03:28:32;;;;;;;2.97;1.73;;;;;;;11.52;95.25;100205.88;2050449;28;20032;-70
2023/08/09 03:29:35;;;;;;;1.92;1.30;;;;;;;11.52;95.13;100212.06;2058600;28;20074;-70
2023/08/09 03:30:38;;;;;;;2.50;1.77;;;;;;;11.54;94.78;100207.19;2058480;28;20023;-70
2023/08/09 03:31:39;;;;;;;5.80;1.67;;;;;;;11.57;95.34;100203.13;2050339;28;20039;-69
2023/08/09 03:32:41;;;;;;;2.05;1.48;;;;;;;11.57;94.90;100208.50;2058416;28;20126;-69
2023/08/09 03:33:43;;;;;;;5.18;1.60;;;;;;;11.57;94.86;100213.88;2058401;28;20076;-70
2023/08/09 03:34:46;;;;;;;5.40;2.00;;;;;;;11.58;94.66;100204.72;2058282;28;20035;-69
2023/08/09 03:35:49;;;;;;;4.05;1.48;;;;;;;11.58;95.09;100207.41;2050330;28;20028;-70
2023/08/09 03:36:51;;;;;;;4.40;1.65;;;;;;;11.59;94.87;100206.28;2050116;28;20044;-70
2023/08/09 03:37:55;;;;;;;1.65;1.30;;;;;;;11.62;94.87;100203.03;2050346;28;20036;-69
2023/08/09 03:38:57;;;;;;;3.63;1.63;;;;;;;11.64;94.45;100203.53;2049898;28;20039;-69
2023/08/09 03:39:58;;;;;;;5.28;1.60;;;;;;;11.63;95.00;100207.31;2034658;28;20773;-69
2023/08/09 03:41:00;;;;;;;2.33;1.60;;;;;;;11.70;94.62;100207.75;2049847;28;20035;-70
2023/08/09 03:42:02;;;;;;;4.43;1.90;;;;;;;11.72;94.26;100205.53;2049695;28;20043;-69
2023/08/09 03:43:04;;;;;;;2.67;1.60;;;;;;;11.73;94.60;100211.75;2050007;28;20028;-69
2023/08/09 03:44:09;;;;;;;4.70;1.77;;;;;;;11.73;94.23;100217.94;2050982;28;20970;-70
2023/08/09 03:45:14;;;;;;;4.45;1.70;;;;;;;11.75;94.04;100217.63;2058437;28;20019;-70
2023/08/09 03:46:16;;;;;;;3.05;1.40;;;;;;;11.77;94.07;100218.94;2050108;28;20902;-70
2023/08/09 03:47:18;;;;;;;3.95;1.42;;;;;;;11.80;94.28;100218.34;2050312;28;21005;-69
2023/08/09 03:48:20;;;;;;;3.42;1.60;;;;;;;11.79;94.10;100219.44;2058233;28;20038;-69
2023/08/09 03:49:21;;;;;;;2.50;1.63;;;;;;;11.80;94.09;100226.44;2050036;28;20035;-70
2023/08/09 03:50:23;;;;;;;4.15;1.73;;;;;;;11.82;93.92;100220.72;2050485;28;20911;-69
2023/08/09 03:51:29;;;;;;;6.28;1.80;;;;;;;11.85;94.12;100216.69;2050539;28;20087;-70
2023/08/09 03:52:34;;;;;;;3.85;1.45;;;;;;;11.88;93.82;100226.88;2051773;28;20067;-69
2023/08/09 03:53:36;;;;;;;2.45;1.50;;;;;;;11.91;94.00;100226.28;2058834;28;20922;-70
2023/08/09 03:54:40;;;;;;;3.97;1.80;;;;;;;11.95;94.08;100221.94;2058214;28;20040;-69
2023/08/09 03:55:44;;;;;;;3.83;1.63;;;;;;;11.99;94.12;100225.63;2059184;28;20034;-70
2023/08/09 03:56:47;;;;;;;6.43;1.92;;;;;;;12.02;93.92;100225.81;2058445;28;20031;-69
2023/08/09 03:57:48;;;;;;;3.00;1.52;;;;;;;12.00;93.67;100228.00;2049848;28;20147;-70
2023/08/09 03:58:50;;;;;;;4.68;1.60;;;;;;;12.04;93.59;100217.44;2057990;28;20027;-70
2023/08/09 03:59:55;;;;;;;3.85;1.70;;;;;;;12.07;93.38;100222.22;2042643;28;20079;-70
2023/08/09 04:01:01;;;;;;;6.93;1.60;;;;;;;12.11;93.22;100228.63;2052285;28;20028;-70
2023/08/09 04:02:03;;;;;;;3.88;1.70;;;;;;;12.16;93.18;100225.84;2073786;28;20991;-69
2023/08/09 04:03:07;;;;;;;2.45;1.55;;;;;;;12.19;92.94;100225.25;2074308;28;20042;-70
2023/08/09 04:04:08;;;;;;;2.05;1.73;;;;;;;12.25;92.64;100221.38;2057995;28;20993;-70
2023/08/09 04:05:10;;;;;;;5.53;1.80;;;;;;;12.31;92.71;100224.78;2049405;28;20028;-70
2023/08/09 04:06:11;;;;;;;5.30;1.90;;;;;;;12.37;92.58;100228.19;2049708;28;20962;-71
2023/08/09 04:07:13;;;;;;;3.47;1.67;;;;;;;12.44;92.29;100228.56;2049855;28;20048;-71
2023/08/09 04:08:16;;;;;;;2.85;1.65;;;;;;;12.46;91.92;100221.78;2050597;28;20150;-71
2023/08/09 04:09:19;;;;;;;3.80;1.60;;;;;;;12.51;91.58;100226.28;2050522;28;20174;-70
2023/08/09 04:10:23;;;;;;;3.80;1.67;;;;;;;12.58;91.49;100226.69;2050378;28;20779;-70
2023/08/09 04:11:29;;;;;;;5.13;1.90;;;;;;;12.64;91.33;100222.81;2050427;28;20034;-71
2023/08/09 04:12:31;;;;;;;2.13;1.40;;;;;;;12.68;90.89;100223.78;2050591;28;20142;-70
2023/08/09 04:13:32;;;;;;;3.45;1.50;;;;;;;12.69;90.57;100222.69;2066594;28;20102;-70
2023/08/09 04:14:35;;;;;;;2.40;1.70;;;;;;;12.74;90.16;100225.28;2082117;28;20038;-71
2023/08/09 04:15:37;;;;;;;3.40;1.70;;;;;;;12.79;90.36;100218.19;2074175;28;20045;-70
2023/08/09 04:16:38;;;;;;;4.18;1.52;;;;;;;12.84;89.60;100218.09;2077113;28;20771;-71
2023/08/09 04:17:40;;;;;;;5.70;1.50;;;;;;;12.88;89.46;100208.28;2073980;28;20758;-71
2023/08/09 04:18:42;;;;;;;1.90;1.40;;;;;;;12.94;89.37;100212.47;2066047;28;20030;-71
2023/08/09 04:19:44;;;;;;;4.63;1.48;;;;;;;12.98;89.05;100218.84;2049737;28;20044;-70
2023/08/09 04:20:48;;;;;;;3.22;1.55;;;;;;;13.03;88.66;100210.66;2050662;28;20099;-70
2023/08/09 04:21:50;;;;;;;3.60;1.23;;;;;;;13.06;88.20;100225.44;2050059;28;20047;-70
2023/08/09 04:22:51;;;;;;;4.70;1.60;;;;;;;13.11;87.83;100212.63;2055285;28;20122;-71
2023/08/09 04:23:58;;;;;;;3.85;1.83;;;;;;;13.19;87.71;100220.00;2057170;28;20895;-71
2023/08/09 04:25:00;;;;;;;6.13;2.00;;;;;;;13.26;87.66;100225.03;2059189;28;20067;-71
2023/08/09 04:26:03;;;;;;;3.95;1.48;;;;;;;13.28;86.92;100222.81;2065815;28;20039;-71
2023/08/09 04:27:07;;;;;;;3.33;1.60;;;;;;;13.36;86.74;100224.78;2066131;28;20182;-70
2023/08/09 04:28:09;;;;;;;4.35;1.40;;;;;;;13.44;86.72;100220.56;2073640;28;20054;-70
2023/08/09 04:29:10;;;;;;;3.33;1.27;;;;;;;13.53;86.42;100221.44;2073792;28;20132;-70
2023/08/09 04:30:14;;;;;;;4.80;1.52;;;;;;;13.57;85.63;100222.41;2065257;28;20153;-70
2023/08/09 04:31:16;;;;;;;3.72;1.33;;;;;;;13.61;85.43;100218.00;2058028;28;20154;-70
2023/08/09 04:32:17;;;;;;;6.72;1.40;;;;;;;13.71;85.22;100218.84;2073703;28;20828;-70
2023/08/09 04:33:18;;;;;;;4.32;1.60;;;;;;;13.80;85.06;100214.31;2073184;28;20038;-70
2023/08/09 04:34:20;;;;;;;4.40;1.30;;;;;;;13.86;84.48;100219.28;2057130;28;20114;-70
2023/08/09 04:35:23;;;;;;;3.10;1.40;;;;;;;13.93;84.04;100216.13;2065732;28;20070;-70
2023/08/09 04:36:25;;;;;;;5.13;1.55;;;;;;;14.05;84.07;100218.28;2057271;28;20224;-71
2023/08/09 04:37:27;;;;;;;4.25;1.40;;;;;;;14.09;83.17;100225.47;2057176;28;20122;-71
2023/08/09 04:38:31;;;;;;;5.35;1.38;;;;;;;14.08;82.40;100221.16;2057122;28;20862;-71
2023/08/09 04:39:33;;;;;;;4.55;1.48;;;;;;;14.14;82.30;100219.91;2051035;28;20040;-71
2023/08/09 04:40:37;;;;;;;2.97;1.45;;;;;;;14.25;82.39;100217.75;2066071;28;20971;-69
2023/08/09 04:41:39;;;;;;;4.22;1.52;;;;;;;14.38;82.18;100221.47;2073534;28;20030;-71
2023/08/09 04:42:41;;;;;;;3.53;1.27;;;;;;;14.46;81.65;100220.69;2049889;28;21129;-70
2023/08/09 04:43:46;;;;;;;3.65;1.38;;;;;;;14.51;80.52;100219.78;2049415;28;20075;-69
2023/08/09 04:44:48;;;;;;;4.72;1.35;;;;;;;14.59;80.18;100217.09;2058322;28;20774;-69
2023/08/09 04:45:51;;;;;;;3.15;1.40;;;;;;;14.68;80.18;100224.47;2057430;28;20214;-69
2023/08/09 04:46:52;;;;;;;6.15;1.42;;;;;;;14.78;79.92;100224.16;2065231;28;20814;-69
2023/08/09 04:47:54;;;;;;;5.47;1.35;;;;;;;14.84;79.59;100217.50;2041381;28;20029;-69
2023/08/09 04:48:56;;;;;;;2.47;1.40;;;;;;;14.96;79.69;100220.38;2050225;28;20027;-69
2023/08/09 04:49:58;;;;;;;3.67;1.40;;;;;;;15.11;79.60;100227.25;2073950;28;20030;-69
2023/08/09 04:51:00;;;;;;;3.47;1.27;;;;;;;15.25;79.12;100221.69;2065628;28;20039;-69
2023/08/09 04:52:02;;;;;;;4.57;1.42;;;;;;;15.13;77.07;100219.63;2057581;28;20027;-70
2023/08/09 04:53:06;;;;;;;6.05;1.80;;;;;;;14.97;76.94;100232.78;2065746;28;20045;-72
2023/08/09 04:54:11;;;;;;;4.18;1.40;;;;;;;15.02;76.91;100234.56;2066184;28;20093;-72